Stevens Point, Wisconsin
Current Conditions -  °F | °C
As of 11:35 PM on Wednesday 22 Oct 2014 (Local Time) from KSTE Reporting Station
Clear Clear  
Wind Chill: 34°   Ceiling: Unl
Heat Index: 38°   Visibility: 10mi
Dew Point: 36°   Wind: 6mph
Humidity: 89%   Direction: 140°SE
Pressure: 30.2"   Gusts: NA
Location:  44.52°N, 89.57°W
Report Text: KSTE 230435Z AUTO 14005KT 10SM CLR 04/02 A3020 RMK AO2 T00360020
Loading
Personal Weather Stations






























Interactive Weather Map
Tropical Storm Tracking
New forecast layout! Learn more

10-Day Weather Forecast

Advertisements
Track Severe Weather on mobile